sensor_id;sensor_type;location;lat;lon;timestamp;pressure;altitude;pressure_sealevel;temperature;humidity
67740;BME280;54536;50.090;14.420;2023-01-25T00:02:27;101322.38;;;6.29;61.16
67740;BME280;54536;50.090;14.420;2023-01-25T00:04:59;101316.28;;;6.28;61.32
67740;BME280;54536;50.090;14.420;2023-01-25T00:07:26;101315.38;;;6.29;61.88
67740;BME280;54536;50.090;14.420;2023-01-25T00:09:52;101314.53;;;6.29;61.22
67740;BME280;54536;50.090;14.420;2023-01-25T00:12:23;101320.34;;;6.36;62.57
67740;BME280;54536;50.090;14.420;2023-01-25T00:14:49;101318.59;;;6.36;60.74
67740;BME280;54536;50.090;14.420;2023-01-25T00:17:15;101322.97;;;6.36;61.02
67740;BME280;54536;50.090;14.420;2023-01-25T00:19:41;101318.09;;;6.26;61.52
67740;BME280;54536;50.090;14.420;2023-01-25T00:22:08;101326.50;;;6.35;61.10
67740;BME280;54536;50.090;14.420;2023-01-25T00:24:34;101321.41;;;6.31;61.67
67740;BME280;54536;50.090;14.420;2023-01-25T00:27:01;101316.19;;;6.31;61.61
67740;BME280;54536;50.090;14.420;2023-01-25T00:29:27;101314.53;;;6.29;61.23
67740;BME280;54536;50.090;14.420;2023-01-25T00:32:06;101307.34;;;6.34;60.99
67740;BME280;54536;50.090;14.420;2023-01-25T00:34:50;101311.44;;;6.41;61.66
67740;BME280;54536;50.090;14.420;2023-01-25T00:37:39;101298.28;;;6.43;61.75
67740;BME280;54536;50.090;14.420;2023-01-25T00:40:09;101297.44;;;6.42;61.26
67740;BME280;54536;50.090;14.420;2023-01-25T00:42:36;101298.97;;;6.26;61.32
67740;BME280;54536;50.090;14.420;2023-01-25T00:45:02;101297.22;;;6.26;61.26
67740;BME280;54536;50.090;14.420;2023-01-25T00:47:35;101305.84;;;6.28;61.06
67740;BME280;54536;50.090;14.420;2023-01-25T00:50:01;101303.00;;;6.35;60.84
67740;BME280;54536;50.090;14.420;2023-01-25T00:52:27;101300.41;;;6.33;61.26
67740;BME280;54536;50.090;14.420;2023-01-25T00:54:59;101303.00;;;6.35;61.02
67740;BME280;54536;50.090;14.420;2023-01-25T00:57:26;101302.38;;;6.28;61.02
67740;BME280;54536;50.090;14.420;2023-01-25T00:59:52;101298.91;;;6.27;61.54
67740;BME280;54536;50.090;14.420;2023-01-25T01:02:18;101300.75;;;6.25;61.11
67740;BME280;54536;50.090;14.420;2023-01-25T01:04:51;101299.47;;;6.36;61.56
67740;BME280;54536;50.090;14.420;2023-01-25T01:07:24;101304.00;;;6.30;61.50
67740;BME280;54536;50.090;14.420;2023-01-25T01:09:50;101295.28;;;6.31;60.91
67740;BME280;54536;50.090;14.420;2023-01-25T01:12:16;101296.03;;;6.33;61.52
67740;BME280;54536;50.090;14.420;2023-01-25T01:14:43;101301.94;;;6.39;61.83
67740;BME280;54536;50.090;14.420;2023-01-25T01:17:09;101304.69;;;6.36;61.73
67740;BME280;54536;50.090;14.420;2023-01-25T01:19:35;101303.63;;;6.40;61.28
67740;BME280;54536;50.090;14.420;2023-01-25T01:22:02;101303.72;;;6.38;60.92
67740;BME280;54536;50.090;14.420;2023-01-25T01:24:34;101307.78;;;6.45;60.88
67740;BME280;54536;50.090;14.420;2023-01-25T01:27:04;101307.94;;;6.41;60.53
67740;BME280;54536;50.090;14.420;2023-01-25T01:29:30;101299.81;;;6.26;61.70
67740;BME280;54536;50.090;14.420;2023-01-25T01:31:56;101301.59;;;6.26;61.77
67740;BME280;54536;50.090;14.420;2023-01-25T01:34:22;101296.97;;;6.32;61.27
67740;BME280;54536;50.090;14.420;2023-01-25T01:36:49;101305.13;;;6.25;61.09
67740;BME280;54536;50.090;14.420;2023-01-25T01:39:21;101304.13;;;6.27;61.45
67740;BME280;54536;50.090;14.420;2023-01-25T01:41:48;101305.97;;;6.25;61.70
67740;BME280;54536;50.090;14.420;2023-01-25T01:44:44;101299.03;;;6.24;61.61
67740;BME280;54536;50.090;14.420;2023-01-25T01:47:45;101297.88;;;6.09;62.02
67740;BME280;54536;50.090;14.420;2023-01-25T01:50:20;101291.97;;;6.26;61.43
67740;BME280;54536;50.090;14.420;2023-01-25T01:52:49;101293.75;;;6.26;60.96
67740;BME280;54536;50.090;14.420;2023-01-25T01:55:19;101287.09;;;6.19;61.83
67740;BME280;54536;50.090;14.420;2023-01-25T01:57:57;101287.13;;;6.17;62.20
67740;BME280;54536;50.090;14.420;2023-01-25T02:00:31;101281.63;;;6.25;61.62
67740;BME280;54536;50.090;14.420;2023-01-25T02:03:00;101284.50;;;6.17;62.03
67740;BME280;54536;50.090;14.420;2023-01-25T02:05:50;101288.03;;;6.16;61.81
67740;BME280;54536;50.090;14.420;2023-01-25T02:08:18;101289.31;;;6.28;61.71
67740;BME280;54536;50.090;14.420;2023-01-25T02:10:49;101275.78;;;6.18;61.28
67740;BME280;54536;50.090;14.420;2023-01-25T02:13:18;101281.06;;;6.17;61.57
67740;BME280;54536;50.090;14.420;2023-01-25T02:15:47;101279.00;;;6.25;61.86
67740;BME280;54536;50.090;14.420;2023-01-25T02:18:17;101282.81;;;6.16;61.32
67740;BME280;54536;50.090;14.420;2023-01-25T02:20:48;101281.28;;;6.10;62.05
67740;BME280;54536;50.090;14.420;2023-01-25T02:26:12;101272.41;;;6.37;61.00
67740;BME280;54536;50.090;14.420;2023-01-25T02:29:05;101274.63;;;6.25;61.71
67740;BME280;54536;50.090;14.420;2023-01-25T02:31:33;101277.34;;;6.22;62.20
67740;BME280;54536;50.090;14.420;2023-01-25T02:34:00;101269.41;;;6.25;62.01
67740;BME280;54536;50.090;14.420;2023-01-25T02:36:35;101275.47;;;6.26;61.47
67740;BME280;54536;50.090;14.420;2023-01-25T02:39:06;101265.66;;;6.31;61.76
67740;BME280;54536;50.090;14.420;2023-01-25T02:41:39;101265.75;;;6.29;61.56
67740;BME280;54536;50.090;14.420;2023-01-25T02:44:10;101267.75;;;6.23;60.91
67740;BME280;54536;50.090;14.420;2023-01-25T02:46:39;101263.56;;;6.19;61.54
67740;BME280;54536;50.090;14.420;2023-01-25T02:49:08;101259.84;;;6.24;62.05
67740;BME280;54536;50.090;14.420;2023-01-25T02:51:38;101261.44;;;6.28;61.30
67740;BME280;54536;50.090;14.420;2023-01-25T02:54:06;101259.72;;;6.27;61.19
67740;BME280;54536;50.090;14.420;2023-01-25T02:56:33;101246.84;;;6.23;60.98
67740;BME280;54536;50.090;14.420;2023-01-25T02:59:02;101242.81;;;6.16;61.87
67740;BME280;54536;50.090;14.420;2023-01-25T03:01:36;101236.78;;;6.14;62.12
67740;BME280;54536;50.090;14.420;2023-01-25T03:04:04;101236.47;;;6.21;61.32
67740;BME280;54536;50.090;14.420;2023-01-25T03:06:32;101231.09;;;6.24;61.72
67740;BME280;54536;50.090;14.420;2023-01-25T03:08:58;101230.84;;;6.30;60.68
67740;BME280;54536;50.090;14.420;2023-01-25T03:11:25;101228.13;;;6.33;61.14
67740;BME280;54536;50.090;14.420;2023-01-25T03:13:51;101220.53;;;6.27;61.20
67740;BME280;54536;50.090;14.420;2023-01-25T03:16:17;101216.47;;;6.20;61.38
67740;BME280;54536;50.090;14.420;2023-01-25T03:18:54;101215.63;;;6.20;62.39
67740;BME280;54536;50.090;14.420;2023-01-25T03:21:26;101213.16;;;6.17;62.03
67740;BME280;54536;50.090;14.420;2023-01-25T03:24:05;101216.94;;;6.09;61.82
67740;BME280;54536;50.090;14.420;2023-01-25T03:26:31;101211.34;;;6.19;62.16
67740;BME280;54536;50.090;14.420;2023-01-25T03:29:18;101214.41;;;6.28;61.26
67740;BME280;54536;50.090;14.420;2023-01-25T03:31:44;101208.19;;;6.31;61.53
67740;BME280;54536;50.090;14.420;2023-01-25T03:34:11;101205.78;;;6.26;61.09
67740;BME280;54536;50.090;14.420;2023-01-25T03:36:38;101197.31;;;6.21;60.92
67740;BME280;54536;50.090;14.420;2023-01-25T03:39:04;101196.19;;;6.27;60.87
67740;BME280;54536;50.090;14.420;2023-01-25T03:41:30;101189.72;;;6.36;61.25
67740;BME280;54536;50.090;14.420;2023-01-25T03:43:57;101190.94;;;6.27;61.02
67740;BME280;54536;50.090;14.420;2023-01-25T03:46:23;101190.09;;;6.26;61.20
67740;BME280;54536;50.090;14.420;2023-01-25T03:48:50;101189.13;;;6.29;61.60
67740;BME280;54536;50.090;14.420;2023-01-25T03:51:16;101187.88;;;6.17;61.22
67740;BME280;54536;50.090;14.420;2023-01-25T03:53:42;101185.81;;;6.25;62.04
67740;BME280;54536;50.090;14.420;2023-01-25T03:56:16;101184.25;;;6.21;61.84
67740;BME280;54536;50.090;14.420;2023-01-25T03:58:45;101179.41;;;6.32;61.51
67740;BME280;54536;50.090;14.420;2023-01-25T04:01:12;101182.28;;;6.26;61.39
67740;BME280;54536;50.090;14.420;2023-01-25T04:03:44;101178.81;;;6.26;61.27
67740;BME280;54536;50.090;14.420;2023-01-25T04:06:13;101173.91;;;6.18;61.40
67740;BME280;54536;50.090;14.420;2023-01-25T04:08:39;101167.13;;;6.35;61.27
67740;BME280;54536;50.090;14.420;2023-01-25T04:11:07;101171.56;;;6.32;60.77
67740;BME280;54536;50.090;14.420;2023-01-25T04:13:36;101171.91;;;6.25;61.51
67740;BME280;54536;50.090;14.420;2023-01-25T04:16:03;101176.41;;;6.21;61.24
67740;BME280;54536;50.090;14.420;2023-01-25T04:18:42;101169.28;;;6.25;61.81
67740;BME280;54536;50.090;14.420;2023-01-25T04:21:08;101170.78;;;6.30;61.78
67740;BME280;54536;50.090;14.420;2023-01-25T04:23:35;101176.13;;;6.27;61.56
67740;BME280;54536;50.090;14.420;2023-01-25T04:26:03;101173.25;;;6.33;60.73
67740;BME280;54536;50.090;14.420;2023-01-25T04:28:32;101165.25;;;6.38;62.14
67740;BME280;54536;50.090;14.420;2023-01-25T04:31:13;101163.38;;;6.40;61.16
67740;BME280;54536;50.090;14.420;2023-01-25T04:33:39;101163.66;;;6.34;60.88
67740;BME280;54536;50.090;14.420;2023-01-25T04:36:12;101163.72;;;6.32;61.04
67740;BME280;54536;50.090;14.420;2023-01-25T04:38:38;101160.06;;;6.37;61.84
67740;BME280;54536;50.090;14.420;2023-01-25T04:41:04;101157.84;;;6.27;61.67
67740;BME280;54536;50.090;14.420;2023-01-25T04:43:37;101163.94;;;6.28;60.69
67740;BME280;54536;50.090;14.420;2023-01-25T04:46:09;101167.25;;;6.31;61.23
67740;BME280;54536;50.090;14.420;2023-01-25T04:48:39;101166.25;;;6.34;61.51
67740;BME280;54536;50.090;14.420;2023-01-25T04:51:06;101161.63;;;6.41;60.93
67740;BME280;54536;50.090;14.420;2023-01-25T04:53:34;101158.25;;;6.39;61.50
67740;BME280;54536;50.090;14.420;2023-01-25T04:56:06;101163.66;;;6.34;60.94
67740;BME280;54536;50.090;14.420;2023-01-25T04:58:33;101158.72;;;6.28;61.47
67740;BME280;54536;50.090;14.420;2023-01-25T05:01:00;101168.81;;;6.36;61.63
67740;BME280;54536;50.090;14.420;2023-01-25T05:03:28;101161.84;;;6.36;61.30
67740;BME280;54536;50.090;14.420;2023-01-25T05:05:56;101161.50;;;6.44;60.97
67740;BME280;54536;50.090;14.420;2023-01-25T05:08:22;101161.84;;;6.36;61.13
67740;BME280;54536;50.090;14.420;2023-01-25T05:10:48;101149.31;;;6.44;60.99
67740;BME280;54536;50.090;14.420;2023-01-25T05:13:15;101156.81;;;6.31;61.51
67740;BME280;54536;50.090;14.420;2023-01-25T05:15:55;101148.09;;;6.31;60.89
67740;BME280;54536;50.090;14.420;2023-01-25T05:18:22;101153.16;;;6.36;61.58
67740;BME280;54536;50.090;14.420;2023-01-25T05:20:54;101155.88;;;6.32;61.34
67740;BME280;54536;50.090;14.420;2023-01-25T05:23:21;101145.56;;;6.29;61.22
67740;BME280;54536;50.090;14.420;2023-01-25T05:25:47;101151.59;;;6.31;61.19
67740;BME280;54536;50.090;14.420;2023-01-25T05:28:38;101145.81;;;6.23;61.75
67740;BME280;54536;50.090;14.420;2023-01-25T05:31:17;101145.31;;;6.36;60.70
67740;BME280;54536;50.090;14.420;2023-01-25T05:33:44;101152.31;;;6.35;61.34
67740;BME280;54536;50.090;14.420;2023-01-25T05:36:11;101154.13;;;6.33;61.38
67740;BME280;54536;50.090;14.420;2023-01-25T05:38:49;101153.84;;;6.39;60.91
67740;BME280;54536;50.090;14.420;2023-01-25T05:41:27;101147.78;;;6.39;60.65
67740;BME280;54536;50.090;14.420;2023-01-25T05:44:01;101148.41;;;6.44;61.32
67740;BME280;54536;50.090;14.420;2023-01-25T05:46:29;101150.53;;;6.36;61.45
67740;BME280;54536;50.090;14.420;2023-01-25T05:48:55;101150.66;;;6.32;61.64
67740;BME280;54536;50.090;14.420;2023-01-25T05:51:21;101148.19;;;6.29;61.44
67740;BME280;54536;50.090;14.420;2023-01-25T05:53:48;101149.88;;;6.30;61.38
67740;BME280;54536;50.090;14.420;2023-01-25T05:56:14;101155.94;;;6.31;61.17
67740;BME280;54536;50.090;14.420;2023-01-25T05:58:41;101164.56;;;6.33;61.13
67740;BME280;54536;50.090;14.420;2023-01-25T06:01:08;101157.19;;;6.43;60.95
67740;BME280;54536;50.090;14.420;2023-01-25T06:03:35;101151.16;;;6.41;61.03
67740;BME280;54536;50.090;14.420;2023-01-25T06:06:04;101155.28;;;6.46;60.69
67740;BME280;54536;50.090;14.420;2023-01-25T06:08:31;101152.69;;;6.46;60.95
67740;BME280;54536;50.090;14.420;2023-01-25T06:11:11;101150.41;;;6.39;61.08
67740;BME280;54536;50.090;14.420;2023-01-25T06:13:38;101151.91;;;6.44;61.26
67740;BME280;54536;50.090;14.420;2023-01-25T06:16:04;101149.22;;;6.46;61.01
67740;BME280;54536;50.090;14.420;2023-01-25T06:18:33;101149.22;;;6.46;60.76
67740;BME280;54536;50.090;14.420;2023-01-25T06:21:00;101151.63;;;6.50;60.60
67740;BME280;54536;50.090;14.420;2023-01-25T06:23:29;101155.25;;;6.48;60.53
67740;BME280;54536;50.090;14.420;2023-01-25T06:26:13;101150.44;;;6.37;60.83
67740;BME280;54536;50.090;14.420;2023-01-25T06:28:46;101150.28;;;6.42;61.02
67740;BME280;54536;50.090;14.420;2023-01-25T06:31:27;101150.06;;;6.46;60.29
67740;BME280;54536;50.090;14.420;2023-01-25T06:34:01;101148.25;;;6.48;60.65
67740;BME280;54536;50.090;14.420;2023-01-25T06:36:31;101143.34;;;6.41;60.84
67740;BME280;54536;50.090;14.420;2023-01-25T06:38:57;101140.09;;;6.36;60.81
67740;BME280;54536;50.090;14.420;2023-01-25T06:41:24;101142.75;;;6.34;60.69
67740;BME280;54536;50.090;14.420;2023-01-25T06:43:52;101134.66;;;6.20;61.04
67740;BME280;54536;50.090;14.420;2023-01-25T06:46:24;101133.34;;;6.30;60.54
67740;BME280;54536;50.090;14.420;2023-01-25T06:48:51;101132.44;;;6.31;60.50
67740;BME280;54536;50.090;14.420;2023-01-25T06:51:18;101127.38;;;6.28;60.56
67740;BME280;54536;50.090;14.420;2023-01-25T06:53:45;101127.53;;;6.23;60.53
67740;BME280;54536;50.090;14.420;2023-01-25T06:56:18;101128.38;;;6.24;60.81
67740;BME280;54536;50.090;14.420;2023-01-25T06:58:46;101131.72;;;6.27;60.52
67740;BME280;54536;50.090;14.420;2023-01-25T07:01:14;101122.84;;;6.31;60.39
67740;BME280;54536;50.090;14.420;2023-01-25T07:03:41;101130.03;;;6.26;60.75
67740;BME280;54536;50.090;14.420;2023-01-25T07:06:09;101127.63;;;6.22;61.26
67740;BME280;54536;50.090;14.420;2023-01-25T07:08:37;101132.19;;;6.17;61.15
67740;BME280;54536;50.090;14.420;2023-01-25T07:11:07;101128.66;;;6.18;61.03
67740;BME280;54536;50.090;14.420;2023-01-25T07:13:37;101126.19;;;6.35;60.35
67740;BME280;54536;50.090;14.420;2023-01-25T07:16:06;101137.13;;;6.43;60.03
67740;BME280;54536;50.090;14.420;2023-01-25T07:18:33;101128.53;;;6.41;60.08
67740;BME280;54536;50.090;14.420;2023-01-25T07:21:09;101131.78;;;6.46;59.81
67740;BME280;54536;50.090;14.420;2023-01-25T07:23:37;101125.84;;;6.22;60.78
67740;BME280;54536;50.090;14.420;2023-01-25T07:26:05;101129.63;;;6.36;60.20
67740;BME280;54536;50.090;14.420;2023-01-25T07:28:32;101122.91;;;6.30;60.19
67740;BME280;54536;50.090;14.420;2023-01-25T07:31:05;101124.31;;;6.37;60.20
67740;BME280;54536;50.090;14.420;2023-01-25T07:33:33;101126.53;;;6.46;59.65
67740;BME280;54536;50.090;14.420;2023-01-25T07:36:03;101120.38;;;6.47;59.80
67740;BME280;54536;50.090;14.420;2023-01-25T07:38:30;101124.78;;;6.47;59.78
67740;BME280;54536;50.090;14.420;2023-01-25T07:41:03;101118.56;;;6.49;59.66
67740;BME280;54536;50.090;14.420;2023-01-25T07:43:29;101124.28;;;6.39;59.70
67740;BME280;54536;50.090;14.420;2023-01-25T07:46:07;101121.00;;;6.54;59.65
67740;BME280;54536;50.090;14.420;2023-01-25T07:48:38;101113.88;;;6.37;60.20
67740;BME280;54536;50.090;14.420;2023-01-25T07:51:07;101117.00;;;6.45;59.70
67740;BME280;54536;50.090;14.420;2023-01-25T07:53:41;101110.34;;;6.59;59.70
67740;BME280;54536;50.090;14.420;2023-01-25T07:56:17;101114.31;;;6.47;59.66
67740;BME280;54536;50.090;14.420;2023-01-25T07:58:45;101113.34;;;6.49;59.38
67740;BME280;54536;50.090;14.420;2023-01-25T08:01:16;101111.84;;;6.44;59.84
67740;BME280;54536;50.090;14.420;2023-01-25T08:03:44;101115.78;;;6.33;59.73
67740;BME280;54536;50.090;14.420;2023-01-25T08:06:12;101107.31;;;6.47;59.65
67740;BME280;54536;50.090;14.420;2023-01-25T08:08:48;101115.25;;;6.46;59.73
67740;BME280;54536;50.090;14.420;2023-01-25T08:11:22;101111.13;;;6.40;59.94
67740;BME280;54536;50.090;14.420;2023-01-25T08:13:50;101111.25;;;6.18;60.67
67740;BME280;54536;50.090;14.420;2023-01-25T08:16:18;101099.72;;;6.22;60.36
67740;BME280;54536;50.090;14.420;2023-01-25T08:18:50;101101.06;;;6.31;59.80
67740;BME280;54536;50.090;14.420;2023-01-25T08:21:17;101104.63;;;6.30;60.22
67740;BME280;54536;50.090;14.420;2023-01-25T08:23:44;101103.38;;;6.39;59.59
67740;BME280;54536;50.090;14.420;2023-01-25T08:26:12;101099.97;;;6.37;59.56
67740;BME280;54536;50.090;14.420;2023-01-25T08:28:39;101105.00;;;6.21;60.64
67740;BME280;54536;50.090;14.420;2023-01-25T08:31:18;101097.84;;;6.26;60.17
67740;BME280;54536;50.090;14.420;2023-01-25T08:33:45;101095.47;;;6.20;60.95
67740;BME280;54536;50.090;14.420;2023-01-25T08:36:13;101092.06;;;6.18;60.27
67740;BME280;54536;50.090;14.420;2023-01-25T08:38:40;101091.06;;;6.22;60.37
67740;BME280;54536;50.090;14.420;2023-01-25T08:41:11;101086.00;;;6.17;60.19
67740;BME280;54536;50.090;14.420;2023-01-25T08:43:39;101083.81;;;6.28;60.62
67740;BME280;54536;50.090;14.420;2023-01-25T08:46:06;101075.56;;;6.38;59.81
67740;BME280;54536;50.090;14.420;2023-01-25T08:48:32;101071.66;;;6.46;60.27
67740;BME280;54536;50.090;14.420;2023-01-25T08:50:59;101085.81;;;6.61;59.21
67740;BME280;54536;50.090;14.420;2023-01-25T08:53:27;101086.38;;;6.49;58.88
67740;BME280;54536;50.090;14.420;2023-01-25T08:55:53;101086.94;;;6.55;59.45
67740;BME280;54536;50.090;14.420;2023-01-25T08:58:20;101074.41;;;6.43;59.84
67740;BME280;54536;50.090;14.420;2023-01-25T09:00:48;101070.81;;;6.46;60.35
67740;BME280;54536;50.090;14.420;2023-01-25T09:03:16;101071.34;;;6.54;59.72
67740;BME280;54536;50.090;14.420;2023-01-25T09:05:43;101071.94;;;6.40;59.40
67740;BME280;54536;50.090;14.420;2023-01-25T09:08:11;101062.28;;;6.42;59.70
67740;BME280;54536;50.090;14.420;2023-01-25T09:10:37;101064.75;;;6.45;60.18
67740;BME280;54536;50.090;14.420;2023-01-25T09:17:04;101053.78;;;6.37;60.00
67740;BME280;54536;50.090;14.420;2023-01-25T09:23:10;101040.97;;;6.51;60.14
67740;BME280;54536;50.090;14.420;2023-01-25T09:26:14;101041.72;;;6.35;59.92
67740;BME280;54536;50.090;14.420;2023-01-25T09:45:22;101044.34;;;6.35;60.12
67740;BME280;54536;50.090;14.420;2023-01-25T09:48:03;101049.75;;;6.30;60.58
67740;BME280;54536;50.090;14.420;2023-01-25T09:51:40;101052.19;;;6.35;60.21
67740;BME280;54536;50.090;14.420;2023-01-25T09:54:38;101045.84;;;6.20;61.17
67740;BME280;54536;50.090;14.420;2023-01-25T10:00:49;101029.13;;;6.24;61.22
67740;BME280;54536;50.090;14.420;2023-01-25T10:07:15;101022.13;;;6.24;60.82
67740;BME280;54536;50.090;14.420;2023-01-25T10:16:37;101005.50;;;6.46;61.04
67740;BME280;54536;50.090;14.420;2023-01-25T10:28:41;100999.97;;;6.33;60.27
67740;BME280;54536;50.090;14.420;2023-01-25T10:31:51;100989.66;;;6.30;60.16
67740;BME280;54536;50.090;14.420;2023-01-25T10:34:40;100984.75;;;6.43;60.50
67740;BME280;54536;50.090;14.420;2023-01-25T10:45:17;100980.19;;;6.27;59.68
67740;BME280;54536;50.090;14.420;2023-01-25T10:51:42;100980.34;;;6.43;59.98
67740;BME280;54536;50.090;14.420;2023-01-25T10:58:37;100975.84;;;6.47;59.01
67740;BME280;54536;50.090;14.420;2023-01-25T11:01:06;100967.44;;;6.40;57.74
67740;BME280;54536;50.090;14.420;2023-01-25T11:04:30;100969.72;;;6.48;58.74
67740;BME280;54536;50.090;14.420;2023-01-25T11:10:37;100950.78;;;6.43;59.00
67740;BME280;54536;50.090;14.420;2023-01-25T11:26:43;100939.53;;;6.41;58.40
67740;BME280;54536;50.090;14.420;2023-01-25T11:30:08;100930.00;;;6.59;57.43
67740;BME280;54536;50.090;14.420;2023-01-25T11:43:05;100911.16;;;6.52;57.76
67740;BME280;54536;50.090;14.420;2023-01-25T12:07:37;100870.72;;;6.59;57.14
67740;BME280;54536;50.090;14.420;2023-01-25T12:13:55;100845.69;;;6.55;57.97
67740;BME280;54536;50.090;14.420;2023-01-25T12:30:36;100804.56;;;6.59;57.51
67740;BME280;54536;50.090;14.420;2023-01-25T12:33:12;100794.25;;;6.55;56.94
67740;BME280;54536;50.090;14.420;2023-01-25T12:36:12;100795.31;;;6.69;56.76
67740;BME280;54536;50.090;14.420;2023-01-25T12:46:15;100778.50;;;6.74;56.66
67740;BME280;54536;50.090;14.420;2023-01-25T12:49:43;100775.56;;;6.63;57.52
67740;BME280;54536;50.090;14.420;2023-01-25T12:55:35;100766.13;;;6.78;56.91
67740;BME280;54536;50.090;14.420;2023-01-25T13:12:16;100728.31;;;6.68;56.38
67740;BME280;54536;50.090;14.420;2023-01-25T13:15:53;100731.81;;;6.67;56.81
67740;BME280;54536;50.090;14.420;2023-01-25T13:22:12;100724.69;;;6.70;56.56
67740;BME280;54536;50.090;14.420;2023-01-25T13:25:35;100729.22;;;6.67;56.83
67740;BME280;54536;50.090;14.420;2023-01-25T13:28:42;100716.28;;;6.64;57.14
67740;BME280;54536;50.090;14.420;2023-01-25T13:38:03;100706.75;;;6.80;56.66
67740;BME280;54536;50.090;14.420;2023-01-25T13:47:30;100700.81;;;6.76;56.16
67740;BME280;54536;50.090;14.420;2023-01-25T13:51:23;100689.38;;;6.79;55.69
67740;BME280;54536;50.090;14.420;2023-01-25T13:53:53;100684.81;;;6.83;56.45
67740;BME280;54536;50.090;14.420;2023-01-25T13:56:29;100692.97;;;6.76;56.05
67740;BME280;54536;50.090;14.420;2023-01-25T13:59:33;100681.78;;;6.74;55.78
67740;BME280;54536;50.090;14.420;2023-01-25T14:02:39;100679.06;;;6.76;56.06
67740;BME280;54536;50.090;14.420;2023-01-25T14:09:10;100686.28;;;6.55;56.96
67740;BME280;54536;50.090;14.420;2023-01-25T14:14:46;100683.06;;;6.83;56.39
67740;BME280;54536;50.090;14.420;2023-01-25T14:20:18;100677.09;;;6.81;56.56
67740;BME280;54536;50.090;14.420;2023-01-25T14:22:49;100675.88;;;6.71;56.65
67740;BME280;54536;50.090;14.420;2023-01-25T14:29:23;100678.50;;;6.71;56.29
67740;BME280;54536;50.090;14.420;2023-01-25T14:32:13;100668.50;;;6.62;57.05
67740;BME280;54536;50.090;14.420;2023-01-25T14:38:40;100670.34;;;6.60;56.43
67740;BME280;54536;50.090;14.420;2023-01-25T14:41:45;100667.81;;;6.41;56.48
67740;BME280;54536;50.090;14.420;2023-01-25T14:51:05;100669.19;;;6.65;57.19
67740;BME280;54536;50.090;14.420;2023-01-25T14:57:05;100662.66;;;6.56;56.94
67740;BME280;54536;50.090;14.420;2023-01-25T15:00:27;100655.13;;;6.68;56.39
67740;BME280;54536;50.090;14.420;2023-01-25T15:15:23;100634.44;;;6.63;55.53
67740;BME280;54536;50.090;14.420;2023-01-25T15:21:32;100622.34;;;6.78;56.02
67740;BME280;54536;50.090;14.420;2023-01-25T15:24:54;100613.03;;;6.72;56.14
67740;BME280;54536;50.090;14.420;2023-01-25T15:27:20;100617.25;;;6.59;56.40
67740;BME280;54536;50.090;14.420;2023-01-25T15:30:43;100615.25;;;6.47;56.74
67740;BME280;54536;50.090;14.420;2023-01-25T15:33:28;100614.63;;;6.26;57.60
67740;BME280;54536;50.090;14.420;2023-01-25T15:36:37;100622.56;;;6.40;57.14
67740;BME280;54536;50.090;14.420;2023-01-25T15:39:13;100623.53;;;6.22;57.49
67740;BME280;54536;50.090;14.420;2023-01-25T15:45:40;100614.56;;;6.43;57.59
67740;BME280;54536;50.090;14.420;2023-01-25T15:51:34;100606.94;;;6.56;57.73
67740;BME280;54536;50.090;14.420;2023-01-25T16:17:03;100560.66;;;6.42;57.49
67740;BME280;54536;50.090;14.420;2023-01-25T16:20:06;100548.47;;;6.25;58.22
67740;BME280;54536;50.090;14.420;2023-01-25T16:23:10;100548.06;;;6.33;57.58
67740;BME280;54536;50.090;14.420;2023-01-25T16:25:57;100554.44;;;6.27;57.71
67740;BME280;54536;50.090;14.420;2023-01-25T16:32:41;100551.72;;;6.46;59.64
67740;BME280;54536;50.090;14.420;2023-01-25T16:41:53;100543.16;;;6.27;57.85
67740;BME280;54536;50.090;14.420;2023-01-25T16:47:42;100541.34;;;6.45;58.75
67740;BME280;54536;50.090;14.420;2023-01-25T16:50:13;100536.22;;;6.59;57.56
67740;BME280;54536;50.090;14.420;2023-01-25T16:56:39;100536.50;;;6.54;57.53
67740;BME280;54536;50.090;14.420;2023-01-25T17:00:05;100530.66;;;6.49;57.22
67740;BME280;54536;50.090;14.420;2023-01-25T17:03:09;100525.59;;;6.46;58.52
67740;BME280;54536;50.090;14.420;2023-01-25T17:06:28;100520.84;;;6.37;57.85
67740;BME280;54536;50.090;14.420;2023-01-25T17:13:11;100515.09;;;6.30;57.58
67740;BME280;54536;50.090;14.420;2023-01-25T17:19:19;100504.16;;;6.24;58.03
67740;BME280;54536;50.090;14.420;2023-01-25T17:22:04;100500.34;;;6.14;58.95
67740;BME280;54536;50.090;14.420;2023-01-25T17:25:07;100494.16;;;6.32;58.27
67740;BME280;54536;50.090;14.420;2023-01-25T17:34:35;100485.78;;;6.25;58.31
67740;BME280;54536;50.090;14.420;2023-01-25T17:43:09;100479.00;;;6.39;58.80
67740;BME280;54536;50.090;14.420;2023-01-25T17:46:32;100474.75;;;6.36;58.00
67740;BME280;54536;50.090;14.420;2023-01-25T17:56:02;100467.25;;;6.30;58.50
67740;BME280;54536;50.090;14.420;2023-01-25T17:58:49;100458.06;;;6.23;58.06
67740;BME280;54536;50.090;14.420;2023-01-25T18:08:00;100443.03;;;6.10;59.06
67740;BME280;54536;50.090;14.420;2023-01-25T18:17:49;100434.34;;;5.94;58.25
67740;BME280;54536;50.090;14.420;2023-01-25T18:43:35;100413.38;;;5.78;59.67
67740;BME280;54536;50.090;14.420;2023-01-25T18:46:39;100407.16;;;5.81;59.53
67740;BME280;54536;50.090;14.420;2023-01-25T18:55:32;100385.34;;;5.66;59.64
67740;BME280;54536;50.090;14.420;2023-01-25T18:58:17;100388.59;;;5.87;59.10
67740;BME280;54536;50.090;14.420;2023-01-25T19:00:44;100383.00;;;5.77;59.59
67740;BME280;54536;50.090;14.420;2023-01-25T19:10:14;100372.66;;;6.09;59.45
67740;BME280;54536;50.090;14.420;2023-01-25T19:12:41;100369.97;;;5.77;59.27
67740;BME280;54536;50.090;14.420;2023-01-25T19:15:26;100369.38;;;5.72;59.87
67740;BME280;54536;50.090;14.420;2023-01-25T19:30:49;100347.56;;;5.73;59.76